sensor_id;sensor_type;location;lat;lon;timestamp;temperature;humidity
21298;DHT22;10808;48.010;11.326;2023-08-07T00:01:26;12.70;99.90
21298;DHT22;10808;48.010;11.326;2023-08-07T00:03:52;12.60;99.90
21298;DHT22;10808;48.010;11.326;2023-08-07T00:06:18;12.60;99.90
21298;DHT22;10808;48.010;11.326;2023-08-07T00:08:44;12.60;99.90
21298;DHT22;10808;48.010;11.326;2023-08-07T00:11:10;12.50;99.90
21298;DHT22;10808;48.010;11.326;2023-08-07T00:13:36;12.50;99.90
21298;DHT22;10808;48.010;11.326;2023-08-07T00:16:02;12.40;99.90
21298;DHT22;10808;48.010;11.326;2023-08-07T00:18:29;12.40;99.90
21298;DHT22;10808;48.010;11.326;2023-08-07T00:20:55;12.40;99.90
21298;DHT22;10808;48.010;11.326;2023-08-07T00:23:21;12.30;99.90
21298;DHT22;10808;48.010;11.326;2023-08-07T00:25:47;12.30;99.90
21298;DHT22;10808;48.010;11.326;2023-08-07T00:28:13;12.20;99.90
21298;DHT22;10808;48.010;11.326;2023-08-07T00:30:39;12.20;99.90
21298;DHT22;10808;48.010;11.326;2023-08-07T00:33:05;12.10;99.90
21298;DHT22;10808;48.010;11.326;2023-08-07T00:35:32;12.10;99.90
21298;DHT22;10808;48.010;11.326;2023-08-07T00:37:58;12.10;99.90
21298;DHT22;10808;48.010;11.326;2023-08-07T00:40:24;12.00;99.90
21298;DHT22;10808;48.010;11.326;2023-08-07T00:42:50;12.10;99.90
21298;DHT22;10808;48.010;11.326;2023-08-07T00:45:16;12.10;99.90
21298;DHT22;10808;48.010;11.326;2023-08-07T00:47:43;12.00;99.90
21298;DHT22;10808;48.010;11.326;2023-08-07T00:50:10;12.00;99.90
21298;DHT22;10808;48.010;11.326;2023-08-07T00:52:36;11.90;99.90
21298;DHT22;10808;48.010;11.326;2023-08-07T00:55:03;12.00;99.90
21298;DHT22;10808;48.010;11.326;2023-08-07T00:57:29;11.90;99.90
21298;DHT22;10808;48.010;11.326;2023-08-07T00:59:56;11.90;99.90
21298;DHT22;10808;48.010;11.326;2023-08-07T01:02:22;11.90;99.90
21298;DHT22;10808;48.010;11.326;2023-08-07T01:04:49;11.90;99.90
21298;DHT22;10808;48.010;11.326;2023-08-07T01:07:16;11.90;99.90
21298;DHT22;10808;48.010;11.326;2023-08-07T01:09:42;11.80;99.90
21298;DHT22;10808;48.010;11.326;2023-08-07T01:12:16;11.80;99.90
21298;DHT22;10808;48.010;11.326;2023-08-07T01:14:55;11.80;99.90
21298;DHT22;10808;48.010;11.326;2023-08-07T01:17:24;11.80;99.90
21298;DHT22;10808;48.010;11.326;2023-08-07T01:19:51;11.80;99.90
21298;DHT22;10808;48.010;11.326;2023-08-07T01:22:19;11.80;99.90
21298;DHT22;10808;48.010;11.326;2023-08-07T01:24:47;11.70;99.90
21298;DHT22;10808;48.010;11.326;2023-08-07T01:27:32;11.70;99.90
21298;DHT22;10808;48.010;11.326;2023-08-07T01:30:30;11.70;99.90
21298;DHT22;10808;48.010;11.326;2023-08-07T01:33:17;11.70;99.90
21298;DHT22;10808;48.010;11.326;2023-08-07T01:35:52;11.70;99.90
21298;DHT22;10808;48.010;11.326;2023-08-07T01:38:21;11.60;99.90
21298;DHT22;10808;48.010;11.326;2023-08-07T01:40:49;11.60;99.90
21298;DHT22;10808;48.010;11.326;2023-08-07T01:43:16;11.60;99.90
21298;DHT22;10808;48.010;11.326;2023-08-07T01:45:44;11.50;99.90
21298;DHT22;10808;48.010;11.326;2023-08-07T01:48:11;11.60;99.90
21298;DHT22;10808;48.010;11.326;2023-08-07T01:50:38;11.60;99.90
21298;DHT22;10808;48.010;11.326;2023-08-07T01:53:05;11.50;99.90
21298;DHT22;10808;48.010;11.326;2023-08-07T01:55:31;11.50;99.90
21298;DHT22;10808;48.010;11.326;2023-08-07T01:57:57;11.40;99.90
21298;DHT22;10808;48.010;11.326;2023-08-07T02:00:23;11.50;99.90
21298;DHT22;10808;48.010;11.326;2023-08-07T02:02:49;11.50;99.90
21298;DHT22;10808;48.010;11.326;2023-08-07T02:05:15;11.50;99.90
21298;DHT22;10808;48.010;11.326;2023-08-07T02:07:42;11.40;99.90
21298;DHT22;10808;48.010;11.326;2023-08-07T02:10:08;11.40;99.90
21298;DHT22;10808;48.010;11.326;2023-08-07T02:12:34;11.40;99.90
21298;DHT22;10808;48.010;11.326;2023-08-07T02:15:00;11.40;99.90
21298;DHT22;10808;48.010;11.326;2023-08-07T02:17:27;11.40;99.90
21298;DHT22;10808;48.010;11.326;2023-08-07T02:19:56;11.50;99.90
21298;DHT22;10808;48.010;11.326;2023-08-07T02:22:22;11.50;99.90
21298;DHT22;10808;48.010;11.326;2023-08-07T02:24:48;11.50;99.90
21298;DHT22;10808;48.010;11.326;2023-08-07T02:27:14;11.50;99.90
21298;DHT22;10808;48.010;11.326;2023-08-07T02:29:40;11.50;99.90
21298;DHT22;10808;48.010;11.326;2023-08-07T02:32:06;11.50;99.90
21298;DHT22;10808;48.010;11.326;2023-08-07T02:34:33;11.50;99.90
21298;DHT22;10808;48.010;11.326;2023-08-07T02:36:59;11.60;99.90
21298;DHT22;10808;48.010;11.326;2023-08-07T02:39:25;11.60;99.90
21298;DHT22;10808;48.010;11.326;2023-08-07T02:41:51;11.50;99.90
21298;DHT22;10808;48.010;11.326;2023-08-07T02:44:17;11.60;99.90
21298;DHT22;10808;48.010;11.326;2023-08-07T02:46:44;11.60;99.90
21298;DHT22;10808;48.010;11.326;2023-08-07T02:49:10;11.60;99.90
21298;DHT22;10808;48.010;11.326;2023-08-07T02:51:36;11.60;99.90
21298;DHT22;10808;48.010;11.326;2023-08-07T02:54:02;11.60;99.90
21298;DHT22;10808;48.010;11.326;2023-08-07T02:56:31;11.60;99.90
21298;DHT22;10808;48.010;11.326;2023-08-07T02:58:58;11.60;99.90
21298;DHT22;10808;48.010;11.326;2023-08-07T03:01:25;11.60;99.90
21298;DHT22;10808;48.010;11.326;2023-08-07T03:03:51;11.60;99.90
21298;DHT22;10808;48.010;11.326;2023-08-07T03:06:17;11.70;99.90
21298;DHT22;10808;48.010;11.326;2023-08-07T03:08:43;11.70;99.90
21298;DHT22;10808;48.010;11.326;2023-08-07T03:11:09;11.70;99.90
21298;DHT22;10808;48.010;11.326;2023-08-07T03:13:35;11.70;99.90
21298;DHT22;10808;48.010;11.326;2023-08-07T03:16:02;11.70;99.90
21298;DHT22;10808;48.010;11.326;2023-08-07T03:18:29;11.70;99.90
21298;DHT22;10808;48.010;11.326;2023-08-07T03:20:56;11.70;99.90
21298;DHT22;10808;48.010;11.326;2023-08-07T03:23:23;11.70;99.90
21298;DHT22;10808;48.010;11.326;2023-08-07T03:25:50;11.80;99.90
21298;DHT22;10808;48.010;11.326;2023-08-07T03:28:16;11.80;99.90
21298;DHT22;10808;48.010;11.326;2023-08-07T03:30:43;11.80;99.90
21298;DHT22;10808;48.010;11.326;2023-08-07T03:33:10;11.80;99.90
21298;DHT22;10808;48.010;11.326;2023-08-07T03:35:36;11.80;99.90
21298;DHT22;10808;48.010;11.326;2023-08-07T03:38:02;11.80;99.90
21298;DHT22;10808;48.010;11.326;2023-08-07T03:40:28;11.80;99.90
21298;DHT22;10808;48.010;11.326;2023-08-07T03:42:54;11.80;99.90
21298;DHT22;10808;48.010;11.326;2023-08-07T03:45:20;11.90;99.90
21298;DHT22;10808;48.010;11.326;2023-08-07T03:47:46;11.80;99.90
21298;DHT22;10808;48.010;11.326;2023-08-07T03:50:12;11.90;99.90
21298;DHT22;10808;48.010;11.326;2023-08-07T03:52:38;11.90;99.90
21298;DHT22;10808;48.010;11.326;2023-08-07T03:55:06;11.90;99.90
21298;DHT22;10808;48.010;11.326;2023-08-07T03:57:32;11.90;99.90
21298;DHT22;10808;48.010;11.326;2023-08-07T03:59:58;11.90;99.90
21298;DHT22;10808;48.010;11.326;2023-08-07T04:02:25;11.90;99.90
21298;DHT22;10808;48.010;11.326;2023-08-07T04:04:51;11.90;99.90
21298;DHT22;10808;48.010;11.326;2023-08-07T04:07:17;12.00;99.90
21298;DHT22;10808;48.010;11.326;2023-08-07T04:09:43;12.00;99.90
21298;DHT22;10808;48.010;11.326;2023-08-07T04:12:09;11.90;99.90
21298;DHT22;10808;48.010;11.326;2023-08-07T04:14:35;11.90;99.90
21298;DHT22;10808;48.010;11.326;2023-08-07T04:17:01;11.90;99.90
21298;DHT22;10808;48.010;11.326;2023-08-07T04:19:27;12.00;99.90
21298;DHT22;10808;48.010;11.326;2023-08-07T04:21:53;12.00;99.90
21298;DHT22;10808;48.010;11.326;2023-08-07T04:24:19;11.90;99.90
21298;DHT22;10808;48.010;11.326;2023-08-07T04:26:46;11.90;99.90
21298;DHT22;10808;48.010;11.326;2023-08-07T04:29:13;12.00;99.90
21298;DHT22;10808;48.010;11.326;2023-08-07T04:31:39;12.00;99.90
21298;DHT22;10808;48.010;11.326;2023-08-07T04:34:05;12.00;99.90
21298;DHT22;10808;48.010;11.326;2023-08-07T04:36:31;12.00;99.90
21298;DHT22;10808;48.010;11.326;2023-08-07T04:38:57;12.00;99.90
21298;DHT22;10808;48.010;11.326;2023-08-07T04:41:23;12.00;99.90
21298;DHT22;10808;48.010;11.326;2023-08-07T04:43:50;12.10;99.90
21298;DHT22;10808;48.010;11.326;2023-08-07T04:46:16;12.00;99.90
21298;DHT22;10808;48.010;11.326;2023-08-07T04:48:42;12.00;99.90
21298;DHT22;10808;48.010;11.326;2023-08-07T04:51:08;12.00;99.90
21298;DHT22;10808;48.010;11.326;2023-08-07T04:53:34;12.00;99.90
21298;DHT22;10808;48.010;11.326;2023-08-07T04:56:00;12.00;99.90
21298;DHT22;10808;48.010;11.326;2023-08-07T04:58:26;12.10;99.90
21298;DHT22;10808;48.010;11.326;2023-08-07T05:00:59;12.00;99.90
21298;DHT22;10808;48.010;11.326;2023-08-07T05:03:26;12.00;99.90
21298;DHT22;10808;48.010;11.326;2023-08-07T05:06:02;12.00;99.90
21298;DHT22;10808;48.010;11.326;2023-08-07T05:08:28;12.00;99.90
21298;DHT22;10808;48.010;11.326;2023-08-07T05:10:54;12.00;99.90
21298;DHT22;10808;48.010;11.326;2023-08-07T05:13:20;12.00;99.90
21298;DHT22;10808;48.010;11.326;2023-08-07T05:15:49;12.00;99.90
21298;DHT22;10808;48.010;11.326;2023-08-07T05:18:16;12.00;99.90
21298;DHT22;10808;48.010;11.326;2023-08-07T05:20:42;12.00;99.90
21298;DHT22;10808;48.010;11.326;2023-08-07T05:23:09;12.00;99.90
21298;DHT22;10808;48.010;11.326;2023-08-07T05:25:36;12.10;99.90
21298;DHT22;10808;48.010;11.326;2023-08-07T05:28:03;12.10;99.90
21298;DHT22;10808;48.010;11.326;2023-08-07T05:30:29;12.10;99.90
21298;DHT22;10808;48.010;11.326;2023-08-07T05:32:55;12.10;99.90
21298;DHT22;10808;48.010;11.326;2023-08-07T05:35:21;12.10;99.90
21298;DHT22;10808;48.010;11.326;2023-08-07T05:37:47;12.20;99.90
21298;DHT22;10808;48.010;11.326;2023-08-07T05:40:13;12.20;99.90
21298;DHT22;10808;48.010;11.326;2023-08-07T05:42:39;12.30;99.90
21298;DHT22;10808;48.010;11.326;2023-08-07T05:45:07;12.30;99.90
21298;DHT22;10808;48.010;11.326;2023-08-07T05:47:34;12.40;99.90
21298;DHT22;10808;48.010;11.326;2023-08-07T05:50:00;12.50;99.90
21298;DHT22;10808;48.010;11.326;2023-08-07T05:52:26;12.50;99.90
21298;DHT22;10808;48.010;11.326;2023-08-07T05:54:54;12.50;99.90
21298;DHT22;10808;48.010;11.326;2023-08-07T05:57:20;12.50;99.90
21298;DHT22;10808;48.010;11.326;2023-08-07T05:59:46;12.50;99.90
21298;DHT22;10808;48.010;11.326;2023-08-07T06:02:12;12.50;99.90
21298;DHT22;10808;48.010;11.326;2023-08-07T06:04:38;12.50;99.90
21298;DHT22;10808;48.010;11.326;2023-08-07T06:07:05;12.50;99.90
21298;DHT22;10808;48.010;11.326;2023-08-07T06:09:31;12.50;99.90
21298;DHT22;10808;48.010;11.326;2023-08-07T06:11:57;12.50;99.90
21298;DHT22;10808;48.010;11.326;2023-08-07T06:14:23;12.50;99.90
21298;DHT22;10808;48.010;11.326;2023-08-07T06:16:51;12.50;99.90
21298;DHT22;10808;48.010;11.326;2023-08-07T06:19:18;12.60;99.90
21298;DHT22;10808;48.010;11.326;2023-08-07T06:21:44;12.60;99.90
21298;DHT22;10808;48.010;11.326;2023-08-07T06:24:31;12.50;99.90
21298;DHT22;10808;48.010;11.326;2023-08-07T06:26:57;12.60;99.90
21298;DHT22;10808;48.010;11.326;2023-08-07T06:29:23;12.70;99.90
21298;DHT22;10808;48.010;11.326;2023-08-07T06:31:49;12.80;99.90
21298;DHT22;10808;48.010;11.326;2023-08-07T06:34:15;13.00;99.90
21298;DHT22;10808;48.010;11.326;2023-08-07T06:36:41;13.10;99.90
21298;DHT22;10808;48.010;11.326;2023-08-07T06:39:07;13.10;99.90
21298;DHT22;10808;48.010;11.326;2023-08-07T06:41:33;13.20;99.90
21298;DHT22;10808;48.010;11.326;2023-08-07T06:43:59;13.20;99.90
21298;DHT22;10808;48.010;11.326;2023-08-07T06:46:25;13.20;99.90
21298;DHT22;10808;48.010;11.326;2023-08-07T06:48:53;13.30;99.90
21298;DHT22;10808;48.010;11.326;2023-08-07T06:51:20;13.30;99.90
21298;DHT22;10808;48.010;11.326;2023-08-07T06:53:46;13.30;99.90
21298;DHT22;10808;48.010;11.326;2023-08-07T06:56:12;13.40;99.90
21298;DHT22;10808;48.010;11.326;2023-08-07T06:58:38;13.40;99.90
21298;DHT22;10808;48.010;11.326;2023-08-07T07:01:04;13.50;99.90
21298;DHT22;10808;48.010;11.326;2023-08-07T07:03:30;13.70;99.90
21298;DHT22;10808;48.010;11.326;2023-08-07T07:05:56;13.90;99.90
21298;DHT22;10808;48.010;11.326;2023-08-07T07:08:22;14.00;99.90
21298;DHT22;10808;48.010;11.326;2023-08-07T07:10:49;14.00;99.90
21298;DHT22;10808;48.010;11.326;2023-08-07T07:13:15;14.00;99.90
21298;DHT22;10808;48.010;11.326;2023-08-07T07:15:41;14.00;99.90
21298;DHT22;10808;48.010;11.326;2023-08-07T07:18:07;14.10;99.90
21298;DHT22;10808;48.010;11.326;2023-08-07T07:20:33;14.00;99.90
21298;DHT22;10808;48.010;11.326;2023-08-07T07:23:15;14.10;99.90
21298;DHT22;10808;48.010;11.326;2023-08-07T07:25:41;14.20;99.90
21298;DHT22;10808;48.010;11.326;2023-08-07T07:28:07;14.30;99.90
21298;DHT22;10808;48.010;11.326;2023-08-07T07:30:33;14.30;99.90
21298;DHT22;10808;48.010;11.326;2023-08-07T07:32:59;14.30;99.90
21298;DHT22;10808;48.010;11.326;2023-08-07T07:35:25;14.20;99.90
21298;DHT22;10808;48.010;11.326;2023-08-07T07:37:53;14.20;99.90
21298;DHT22;10808;48.010;11.326;2023-08-07T07:40:19;14.30;99.90
21298;DHT22;10808;48.010;11.326;2023-08-07T07:42:45;14.30;99.90
21298;DHT22;10808;48.010;11.326;2023-08-07T07:45:11;14.30;99.90
21298;DHT22;10808;48.010;11.326;2023-08-07T07:47:37;14.20;99.90
21298;DHT22;10808;48.010;11.326;2023-08-07T07:50:07;14.20;99.90
21298;DHT22;10808;48.010;11.326;2023-08-07T07:52:34;14.20;99.90
21298;DHT22;10808;48.010;11.326;2023-08-07T07:55:01;14.20;99.90
21298;DHT22;10808;48.010;11.326;2023-08-07T07:57:27;14.10;99.90
21298;DHT22;10808;48.010;11.326;2023-08-07T07:59:53;14.10;99.90
21298;DHT22;10808;48.010;11.326;2023-08-07T08:02:20;14.10;99.90
21298;DHT22;10808;48.010;11.326;2023-08-07T08:04:46;14.10;99.90
21298;DHT22;10808;48.010;11.326;2023-08-07T08:07:13;14.00;99.90
21298;DHT22;10808;48.010;11.326;2023-08-07T08:09:39;14.00;99.90
21298;DHT22;10808;48.010;11.326;2023-08-07T08:12:06;14.10;99.90
21298;DHT22;10808;48.010;11.326;2023-08-07T08:14:32;14.10;99.90
21298;DHT22;10808;48.010;11.326;2023-08-07T08:16:58;14.10;99.90
21298;DHT22;10808;48.010;11.326;2023-08-07T08:19:24;14.00;99.90
21298;DHT22;10808;48.010;11.326;2023-08-07T08:21:50;14.00;99.90
21298;DHT22;10808;48.010;11.326;2023-08-07T08:24:16;14.00;99.90
21298;DHT22;10808;48.010;11.326;2023-08-07T08:26:42;14.00;99.90
21298;DHT22;10808;48.010;11.326;2023-08-07T08:29:08;14.10;99.90
21298;DHT22;10808;48.010;11.326;2023-08-07T08:31:35;14.20;99.90
21298;DHT22;10808;48.010;11.326;2023-08-07T08:34:01;14.30;99.90
21298;DHT22;10808;48.010;11.326;2023-08-07T08:36:27;14.40;99.90
21298;DHT22;10808;48.010;11.326;2023-08-07T08:38:53;14.50;99.90
21298;DHT22;10808;48.010;11.326;2023-08-07T08:41:19;14.60;99.90
21298;DHT22;10808;48.010;11.326;2023-08-07T08:43:46;14.70;99.90
21298;DHT22;10808;48.010;11.326;2023-08-07T08:46:15;14.80;99.90
21298;DHT22;10808;48.010;11.326;2023-08-07T08:48:49;14.90;99.90
21298;DHT22;10808;48.010;11.326;2023-08-07T08:51:15;15.00;99.90
21298;DHT22;10808;48.010;11.326;2023-08-07T08:53:45;15.20;99.90
21298;DHT22;10808;48.010;11.326;2023-08-07T08:56:12;15.50;99.90
21298;DHT22;10808;48.010;11.326;2023-08-07T08:58:38;15.80;99.90
21298;DHT22;10808;48.010;11.326;2023-08-07T09:01:06;16.10;99.90
21298;DHT22;10808;48.010;11.326;2023-08-07T09:03:32;16.20;99.90
21298;DHT22;10808;48.010;11.326;2023-08-07T09:05:59;16.20;99.90
21298;DHT22;10808;48.010;11.326;2023-08-07T09:08:26;16.20;99.90
21298;DHT22;10808;48.010;11.326;2023-08-07T09:10:53;16.10;99.90
21298;DHT22;10808;48.010;11.326;2023-08-07T09:13:23;15.90;99.90
21298;DHT22;10808;48.010;11.326;2023-08-07T09:15:53;15.80;99.90
21298;DHT22;10808;48.010;11.326;2023-08-07T09:18:19;15.70;99.90
21298;DHT22;10808;48.010;11.326;2023-08-07T09:20:46;15.60;99.90
21298;DHT22;10808;48.010;11.326;2023-08-07T09:23:12;15.60;99.90
21298;DHT22;10808;48.010;11.326;2023-08-07T09:25:38;15.40;99.90
21298;DHT22;10808;48.010;11.326;2023-08-07T09:28:05;15.40;99.90
21298;DHT22;10808;48.010;11.326;2023-08-07T09:30:32;15.20;99.90
21298;DHT22;10808;48.010;11.326;2023-08-07T09:33:00;15.20;99.90
21298;DHT22;10808;48.010;11.326;2023-08-07T09:35:29;15.10;99.90
21298;DHT22;10808;48.010;11.326;2023-08-07T09:37:57;15.10;99.90
21298;DHT22;10808;48.010;11.326;2023-08-07T09:40:23;15.10;99.90
21298;DHT22;10808;48.010;11.326;2023-08-07T09:42:53;15.00;99.90
21298;DHT22;10808;48.010;11.326;2023-08-07T09:45:23;15.00;99.90
21298;DHT22;10808;48.010;11.326;2023-08-07T09:48:05;15.00;99.90
21298;DHT22;10808;48.010;11.326;2023-08-07T09:50:34;15.10;99.90
21298;DHT22;10808;48.010;11.326;2023-08-07T09:53:00;15.30;99.90
21298;DHT22;10808;48.010;11.326;2023-08-07T09:55:27;15.30;99.90
21298;DHT22;10808;48.010;11.326;2023-08-07T09:57:54;15.30;99.90
21298;DHT22;10808;48.010;11.326;2023-08-07T10:00:20;15.20;99.90
21298;DHT22;10808;48.010;11.326;2023-08-07T10:02:48;15.20;99.90
21298;DHT22;10808;48.010;11.326;2023-08-07T10:05:15;15.10;99.90
21298;DHT22;10808;48.010;11.326;2023-08-07T10:07:42;15.10;99.90
21298;DHT22;10808;48.010;11.326;2023-08-07T10:10:09;15.00;99.90
21298;DHT22;10808;48.010;11.326;2023-08-07T10:12:38;14.90;99.90
21298;DHT22;10808;48.010;11.326;2023-08-07T10:15:05;14.80;99.90
21298;DHT22;10808;48.010;11.326;2023-08-07T10:17:32;14.90;99.90
21298;DHT22;10808;48.010;11.326;2023-08-07T10:19:58;15.00;99.90
21298;DHT22;10808;48.010;11.326;2023-08-07T10:22:26;15.10;99.90
21298;DHT22;10808;48.010;11.326;2023-08-07T10:24:53;15.20;99.90
21298;DHT22;10808;48.010;11.326;2023-08-07T10:27:21;15.30;99.90
21298;DHT22;10808;48.010;11.326;2023-08-07T10:29:50;15.40;99.90
21298;DHT22;10808;48.010;11.326;2023-08-07T10:32:19;15.50;99.90
21298;DHT22;10808;48.010;11.326;2023-08-07T10:34:52;15.60;99.90
21298;DHT22;10808;48.010;11.326;2023-08-07T10:37:43;15.70;99.90
21298;DHT22;10808;48.010;11.326;2023-08-07T10:40:12;15.80;99.90
21298;DHT22;10808;48.010;11.326;2023-08-07T10:42:57;15.80;99.90
21298;DHT22;10808;48.010;11.326;2023-08-07T10:45:24;15.80;99.90
21298;DHT22;10808;48.010;11.326;2023-08-07T10:48:20;15.90;99.90
21298;DHT22;10808;48.010;11.326;2023-08-07T10:51:03;16.10;99.90
21298;DHT22;10808;48.010;11.326;2023-08-07T10:53:38;16.40;99.90
21298;DHT22;10808;48.010;11.326;2023-08-07T10:56:09;16.60;99.90
21298;DHT22;10808;48.010;11.326;2023-08-07T10:58:37;16.80;99.90
21298;DHT22;10808;48.010;11.326;2023-08-07T11:04:06;17.60;99.90
21298;DHT22;10808;48.010;11.326;2023-08-07T11:06:35;17.80;99.90
21298;DHT22;10808;48.010;11.326;2023-08-07T11:09:04;18.10;99.90
21298;DHT22;10808;48.010;11.326;2023-08-07T11:11:47;18.40;99.90
21298;DHT22;10808;48.010;11.326;2023-08-07T11:14:17;18.80;99.90
21298;DHT22;10808;48.010;11.326;2023-08-07T11:16:45;19.00;99.70
21298;DHT22;10808;48.010;11.326;2023-08-07T11:19:14;19.20;99.50
21298;DHT22;10808;48.010;11.326;2023-08-07T11:21:41;19.40;99.40
21298;DHT22;10808;48.010;11.326;2023-08-07T11:24:08;19.60;98.80
21298;DHT22;10808;48.010;11.326;2023-08-07T11:26:34;19.80;97.70
21298;DHT22;10808;48.010;11.326;2023-08-07T11:29:00;19.80;98.50
21298;DHT22;10808;48.010;11.326;2023-08-07T11:31:26;20.00;97.50
21298;DHT22;10808;48.010;11.326;2023-08-07T11:33:55;20.00;97.00
21298;DHT22;10808;48.010;11.326;2023-08-07T11:36:22;20.20;98.00
21298;DHT22;10808;48.010;11.326;2023-08-07T11:38:48;20.60;97.60
21298;DHT22;10808;48.010;11.326;2023-08-07T11:41:16;20.80;96.30
21298;DHT22;10808;48.010;11.326;2023-08-07T11:43:42;20.80;95.80
21298;DHT22;10808;48.010;11.326;2023-08-07T11:46:11;20.90;96.30
21298;DHT22;10808;48.010;11.326;2023-08-07T11:48:38;21.10;96.80
21298;DHT22;10808;48.010;11.326;2023-08-07T11:51:07;21.30;95.60
21298;DHT22;10808;48.010;11.326;2023-08-07T11:53:36;21.50;95.00
21298;DHT22;10808;48.010;11.326;2023-08-07T11:56:06;21.50;94.70
21298;DHT22;10808;48.010;11.326;2023-08-07T11:58:37;21.60;95.40
21298;DHT22;10808;48.010;11.326;2023-08-07T12:01:15;21.70;94.00
21298;DHT22;10808;48.010;11.326;2023-08-07T12:03:52;21.50;93.60
21298;DHT22;10808;48.010;11.326;2023-08-07T12:06:23;21.30;93.60
21298;DHT22;10808;48.010;11.326;2023-08-07T12:08:52;20.90;93.90
21298;DHT22;10808;48.010;11.326;2023-08-07T12:11:19;20.80;94.20
21298;DHT22;10808;48.010;11.326;2023-08-07T12:13:47;20.70;94.60
21298;DHT22;10808;48.010;11.326;2023-08-07T12:16:15;20.70;94.80
21298;DHT22;10808;48.010;11.326;2023-08-07T12:18:45;20.50;94.00
21298;DHT22;10808;48.010;11.326;2023-08-07T12:21:15;20.10;94.00
21298;DHT22;10808;48.010;11.326;2023-08-07T12:23:49;19.80;94.60
21298;DHT22;10808;48.010;11.326;2023-08-07T12:26:16;19.70;95.70
21298;DHT22;10808;48.010;11.326;2023-08-07T12:28:44;19.70;95.20
21298;DHT22;10808;48.010;11.326;2023-08-07T12:31:17;19.50;95.60
21298;DHT22;10808;48.010;11.326;2023-08-07T12:33:43;19.40;95.70
21298;DHT22;10808;48.010;11.326;2023-08-07T12:36:09;19.10;95.40
21298;DHT22;10808;48.010;11.326;2023-08-07T12:39:01;18.80;95.40
21298;DHT22;10808;48.010;11.326;2023-08-07T12:41:28;18.50;95.50
21298;DHT22;10808;48.010;11.326;2023-08-07T12:43:54;18.20;95.70
21298;DHT22;10808;48.010;11.326;2023-08-07T12:46:20;18.00;95.40
21298;DHT22;10808;48.010;11.326;2023-08-07T12:49:03;17.80;95.20
21298;DHT22;10808;48.010;11.326;2023-08-07T12:51:29;17.60;95.40
21298;DHT22;10808;48.010;11.326;2023-08-07T12:53:55;17.60;95.80
21298;DHT22;10808;48.010;11.326;2023-08-07T12:56:21;17.50;95.80
21298;DHT22;10808;48.010;11.326;2023-08-07T12:58:47;17.50;95.90
21298;DHT22;10808;48.010;11.326;2023-08-07T13:01:13;17.40;96.20
21298;DHT22;10808;48.010;11.326;2023-08-07T13:03:39;17.30;96.20
21298;DHT22;10808;48.010;11.326;2023-08-07T13:06:05;17.30;96.50
21298;DHT22;10808;48.010;11.326;2023-08-07T13:08:34;17.30;96.80
21298;DHT22;10808;48.010;11.326;2023-08-07T13:11:01;17.50;96.90
21298;DHT22;10808;48.010;11.326;2023-08-07T13:13:27;17.90;97.80
21298;DHT22;10808;48.010;11.326;2023-08-07T13:15:54;18.40;98.40
21298;DHT22;10808;48.010;11.326;2023-08-07T13:18:20;18.80;98.60
21298;DHT22;10808;48.010;11.326;2023-08-07T13:20:46;18.90;99.00
21298;DHT22;10808;48.010;11.326;2023-08-07T13:23:13;18.70;98.90
21298;DHT22;10808;48.010;11.326;2023-08-07T13:25:40;18.50;99.20
21298;DHT22;10808;48.010;11.326;2023-08-07T13:28:06;18.30;99.60
21298;DHT22;10808;48.010;11.326;2023-08-07T13:30:33;18.30;99.90
21298;DHT22;10808;48.010;11.326;2023-08-07T13:32:59;18.10;99.70
21298;DHT22;10808;48.010;11.326;2023-08-07T13:35:25;18.00;99.90
21298;DHT22;10808;48.010;11.326;2023-08-07T13:37:52;17.90;99.80
21298;DHT22;10808;48.010;11.326;2023-08-07T13:40:18;17.90;99.90
21298;DHT22;10808;48.010;11.326;2023-08-07T13:42:46;17.90;99.90
21298;DHT22;10808;48.010;11.326;2023-08-07T13:45:12;17.90;99.90
21298;DHT22;10808;48.010;11.326;2023-08-07T13:47:39;17.90;99.90
21298;DHT22;10808;48.010;11.326;2023-08-07T13:50:06;17.80;99.90
21298;DHT22;10808;48.010;11.326;2023-08-07T13:52:36;17.80;99.90
21298;DHT22;10808;48.010;11.326;2023-08-07T13:55:02;17.70;99.90
21298;DHT22;10808;48.010;11.326;2023-08-07T13:57:28;17.50;99.90
21298;DHT22;10808;48.010;11.326;2023-08-07T13:59:54;17.40;99.90
21298;DHT22;10808;48.010;11.326;2023-08-07T14:02:20;17.20;99.90
21298;DHT22;10808;48.010;11.326;2023-08-07T14:04:46;17.10;99.90
21298;DHT22;10808;48.010;11.326;2023-08-07T14:07:12;17.10;99.90
21298;DHT22;10808;48.010;11.326;2023-08-07T14:09:39;17.10;99.90
21298;DHT22;10808;48.010;11.326;2023-08-07T14:12:05;17.00;99.90
21298;DHT22;10808;48.010;11.326;2023-08-07T14:14:31;17.00;99.90
21298;DHT22;10808;48.010;11.326;2023-08-07T14:16:57;17.00;99.90
21298;DHT22;10808;48.010;11.326;2023-08-07T14:19:26;16.90;99.90
21298;DHT22;10808;48.010;11.326;2023-08-07T14:21:53;17.10;99.90
21298;DHT22;10808;48.010;11.326;2023-08-07T14:24:19;17.30;99.90
21298;DHT22;10808;48.010;11.326;2023-08-07T14:26:45;17.50;99.90
21298;DHT22;10808;48.010;11.326;2023-08-07T14:29:12;17.70;99.90
21298;DHT22;10808;48.010;11.326;2023-08-07T14:31:43;17.70;99.90
21298;DHT22;10808;48.010;11.326;2023-08-07T14:34:09;17.50;99.90
21298;DHT22;10808;48.010;11.326;2023-08-07T14:36:35;17.40;99.90
21298;DHT22;10808;48.010;11.326;2023-08-07T14:39:02;17.20;99.90
21298;DHT22;10808;48.010;11.326;2023-08-07T14:41:28;17.10;99.90
21298;DHT22;10808;48.010;11.326;2023-08-07T14:43:54;17.10;99.90
21298;DHT22;10808;48.010;11.326;2023-08-07T14:46:20;16.90;99.90
21298;DHT22;10808;48.010;11.326;2023-08-07T14:48:54;16.90;99.90
21298;DHT22;10808;48.010;11.326;2023-08-07T14:51:21;16.80;99.90
21298;DHT22;10808;48.010;11.326;2023-08-07T14:53:47;16.70;99.90
21298;DHT22;10808;48.010;11.326;2023-08-07T14:56:13;16.60;99.90
21298;DHT22;10808;48.010;11.326;2023-08-07T14:58:39;16.50;99.90
21298;DHT22;10808;48.010;11.326;2023-08-07T15:01:05;16.50;99.90
21298;DHT22;10808;48.010;11.326;2023-08-07T15:03:31;16.40;99.90
21298;DHT22;10808;48.010;11.326;2023-08-07T15:05:57;16.40;99.90
21298;DHT22;10808;48.010;11.326;2023-08-07T15:08:23;16.40;99.90
21298;DHT22;10808;48.010;11.326;2023-08-07T15:10:52;16.40;99.90
21298;DHT22;10808;48.010;11.326;2023-08-07T15:13:19;16.20;99.90
21298;DHT22;10808;48.010;11.326;2023-08-07T15:15:45;16.10;99.90
21298;DHT22;10808;48.010;11.326;2023-08-07T15:18:14;16.00;99.90
21298;DHT22;10808;48.010;11.326;2023-08-07T15:20:40;15.90;99.90